sensor_id;sensor_type;location;lat;lon;timestamp;pressure;altitude;pressure_sealevel;temperature;humidity
77112;BME280;66064;50.226;14.344;2023-01-09T00:01:48;98253.44;;;3.07;88.83
77112;BME280;66064;50.226;14.344;2023-01-09T00:04:14;98242.84;;;3.04;88.10
77112;BME280;66064;50.226;14.344;2023-01-09T00:06:40;98245.78;;;3.19;87.99
77112;BME280;66064;50.226;14.344;2023-01-09T00:09:08;98240.50;;;3.19;88.05
77112;BME280;66064;50.226;14.344;2023-01-09T00:11:35;98233.47;;;3.18;87.93
77112;BME280;66064;50.226;14.344;2023-01-09T00:14:02;98218.44;;;3.11;88.17
77112;BME280;66064;50.226;14.344;2023-01-09T00:16:29;98220.28;;;3.15;87.74
77112;BME280;66064;50.226;14.344;2023-01-09T00:18:54;98225.75;;;3.27;88.04
77112;BME280;66064;50.226;14.344;2023-01-09T00:21:21;98207.13;;;3.15;88.23
77112;BME280;66064;50.226;14.344;2023-01-09T00:23:47;98222.09;;;3.17;88.00
77112;BME280;66064;50.226;14.344;2023-01-09T00:26:17;98229.09;;;3.19;88.31
77112;BME280;66064;50.226;14.344;2023-01-09T00:28:44;98236.22;;;3.24;88.54
77112;BME280;66064;50.226;14.344;2023-01-09T00:31:11;98220.28;;;3.15;88.46
77112;BME280;66064;50.226;14.344;2023-01-09T00:33:51;98227.34;;;3.17;87.90
77112;BME280;66064;50.226;14.344;2023-01-09T00:36:19;98229.16;;;3.22;88.65
77112;BME280;66064;50.226;14.344;2023-01-09T00:38:45;98231.03;;;3.29;88.07
77112;BME280;66064;50.226;14.344;2023-01-09T00:41:19;98224.94;;;3.31;88.55
77112;BME280;66064;50.226;14.344;2023-01-09T00:43:54;98216.06;;;3.23;87.97
77112;BME280;66064;50.226;14.344;2023-01-09T00:46:25;98217.91;;;3.30;87.80
77112;BME280;66064;50.226;14.344;2023-01-09T00:48:52;98214.31;;;3.25;88.69
77112;BME280;66064;50.226;14.344;2023-01-09T00:51:18;98209.94;;;3.26;88.51
77112;BME280;66064;50.226;14.344;2023-01-09T00:53:45;98201.31;;;3.33;88.30
77112;BME280;66064;50.226;14.344;2023-01-09T00:56:16;98201.28;;;3.31;89.13
77112;BME280;66064;50.226;14.344;2023-01-09T00:58:43;98184.56;;;3.28;88.85
77112;BME280;66064;50.226;14.344;2023-01-09T01:01:09;98178.63;;;3.38;88.71
77112;BME280;66064;50.226;14.344;2023-01-09T01:03:36;98177.72;;;3.37;88.68
77112;BME280;66064;50.226;14.344;2023-01-09T01:06:02;98173.41;;;3.41;89.00
77112;BME280;66064;50.226;14.344;2023-01-09T01:08:46;98149.47;;;3.24;89.13
77112;BME280;66064;50.226;14.344;2023-01-09T01:11:12;98164.44;;;3.30;89.25
77112;BME280;66064;50.226;14.344;2023-01-09T01:13:40;98165.53;;;3.42;89.23
77112;BME280;66064;50.226;14.344;2023-01-09T01:16:08;98154.97;;;3.39;89.17
77112;BME280;66064;50.226;14.344;2023-01-09T01:18:34;98147.88;;;3.34;89.46
77112;BME280;66064;50.226;14.344;2023-01-09T01:21:05;98140.16;;;3.46;89.03
77112;BME280;66064;50.226;14.344;2023-01-09T01:23:32;98119.97;;;3.45;88.13
77112;BME280;66064;50.226;14.344;2023-01-09T01:26:05;98126.97;;;3.43;88.74
77112;BME280;66064;50.226;14.344;2023-01-09T01:28:31;98129.63;;;3.44;88.92
77112;BME280;66064;50.226;14.344;2023-01-09T01:30:57;98123.56;;;3.48;88.19
77112;BME280;66064;50.226;14.344;2023-01-09T01:33:23;98119.03;;;3.41;89.08
77112;BME280;66064;50.226;14.344;2023-01-09T01:35:49;98103.09;;;3.29;89.05
77112;BME280;66064;50.226;14.344;2023-01-09T01:38:14;98108.53;;;3.40;88.72
77112;BME280;66064;50.226;14.344;2023-01-09T01:40:40;98088.28;;;3.34;89.04
77112;BME280;66064;50.226;14.344;2023-01-09T01:43:08;98112.94;;;3.42;88.52
77112;BME280;66064;50.226;14.344;2023-01-09T01:45:36;98112.84;;;3.36;89.05
77112;BME280;66064;50.226;14.344;2023-01-09T01:48:08;98104.97;;;3.36;88.70
77112;BME280;66064;50.226;14.344;2023-01-09T01:50:40;98099.75;;;3.39;88.86
77112;BME280;66064;50.226;14.344;2023-01-09T01:55:49;98085.56;;;3.30;88.60
77112;BME280;66064;50.226;14.344;2023-01-09T01:58:19;98092.69;;;3.35;88.88
77112;BME280;66064;50.226;14.344;2023-01-09T02:00:46;98088.44;;;3.45;88.15
77112;BME280;66064;50.226;14.344;2023-01-09T02:03:15;98074.13;;;3.26;88.97
77112;BME280;66064;50.226;14.344;2023-01-09T02:05:43;98075.00;;;3.27;89.22
77112;BME280;66064;50.226;14.344;2023-01-09T02:08:09;98090.00;;;3.32;88.74
77112;BME280;66064;50.226;14.344;2023-01-09T02:10:36;98073.38;;;3.33;89.05
77112;BME280;66064;50.226;14.344;2023-01-09T02:13:05;98067.19;;;3.31;88.68
77112;BME280;66064;50.226;14.344;2023-01-09T02:21:35;98061.06;;;3.32;89.26
77112;BME280;66064;50.226;14.344;2023-01-09T02:26:53;98050.41;;;3.22;89.25
77112;BME280;66064;50.226;14.344;2023-01-09T02:35:08;98031.13;;;3.21;89.65
77112;BME280;66064;50.226;14.344;2023-01-09T02:37:55;98007.31;;;3.12;89.00
77112;BME280;66064;50.226;14.344;2023-01-09T02:40:48;98021.53;;;3.26;88.87
77112;BME280;66064;50.226;14.344;2023-01-09T02:43:15;98007.38;;;3.15;89.00
77112;BME280;66064;50.226;14.344;2023-01-09T02:45:41;98020.72;;;3.30;89.17
77112;BME280;66064;50.226;14.344;2023-01-09T02:48:10;97986.25;;;3.09;89.36
77112;BME280;66064;50.226;14.344;2023-01-09T02:50:41;98019.88;;;3.31;89.05
77112;BME280;66064;50.226;14.344;2023-01-09T02:56:01;97991.72;;;3.26;89.12
77112;BME280;66064;50.226;14.344;2023-01-09T03:09:13;97990.75;;;3.17;89.94
77112;BME280;66064;50.226;14.344;2023-01-09T03:11:43;97966.97;;;3.10;89.52
77112;BME280;66064;50.226;14.344;2023-01-09T03:14:15;97960.84;;;3.09;89.80
77112;BME280;66064;50.226;14.344;2023-01-09T03:16:44;97963.44;;;3.05;90.05
77112;BME280;66064;50.226;14.344;2023-01-09T03:19:15;97973.28;;;3.20;89.29
77112;BME280;66064;50.226;14.344;2023-01-09T03:21:43;97979.38;;;3.17;90.35
77112;BME280;66064;50.226;14.344;2023-01-09T03:24:10;97974.19;;;3.23;89.91
77112;BME280;66064;50.226;14.344;2023-01-09T03:26:36;97963.59;;;3.17;89.46
77112;BME280;66064;50.226;14.344;2023-01-09T03:29:02;97974.34;;;3.35;89.57
77112;BME280;66064;50.226;14.344;2023-01-09T03:31:27;97964.63;;;3.30;88.93
77112;BME280;66064;50.226;14.344;2023-01-09T03:33:53;97957.53;;;3.21;89.46
77112;BME280;66064;50.226;14.344;2023-01-09T03:36:20;97949.63;;;3.21;89.38
77112;BME280;66064;50.226;14.344;2023-01-09T03:38:47;97953.13;;;3.20;89.47
77112;BME280;66064;50.226;14.344;2023-01-09T03:41:13;97962.84;;;3.27;89.63
77112;BME280;66064;50.226;14.344;2023-01-09T03:43:40;97961.97;;;3.28;89.94
77112;BME280;66064;50.226;14.344;2023-01-09T03:46:05;97931.16;;;3.16;89.95
77112;BME280;66064;50.226;14.344;2023-01-09T03:48:31;97949.72;;;3.29;89.79
77112;BME280;66064;50.226;14.344;2023-01-09T03:50:57;97948.91;;;3.33;89.62
77112;BME280;66064;50.226;14.344;2023-01-09T03:53:25;97937.50;;;3.32;89.68
77112;BME280;66064;50.226;14.344;2023-01-09T03:55:54;97944.50;;;3.30;89.90
77112;BME280;66064;50.226;14.344;2023-01-09T03:58:20;97922.50;;;3.24;89.85
77112;BME280;66064;50.226;14.344;2023-01-09T04:00:47;97926.88;;;3.23;89.40
77112;BME280;66064;50.226;14.344;2023-01-09T04:03:16;97940.19;;;3.35;89.85
77112;BME280;66064;50.226;14.344;2023-01-09T04:05:44;97925.25;;;3.34;89.79
77112;BME280;66064;50.226;14.344;2023-01-09T04:08:11;97913.66;;;3.17;90.67
77112;BME280;66064;50.226;14.344;2023-01-09T04:10:37;97930.44;;;3.28;90.72
77112;BME280;66064;50.226;14.344;2023-01-09T04:13:03;97911.94;;;3.21;90.24
77112;BME280;66064;50.226;14.344;2023-01-09T04:15:29;97927.84;;;3.31;90.05
77112;BME280;66064;50.226;14.344;2023-01-09T04:17:55;97923.41;;;3.27;90.25
77112;BME280;66064;50.226;14.344;2023-01-09T04:20:21;97931.34;;;3.30;90.75
77112;BME280;66064;50.226;14.344;2023-01-09T04:22:47;97932.25;;;3.32;90.35
77112;BME280;66064;50.226;14.344;2023-01-09T04:25:12;97926.94;;;3.29;90.81
77112;BME280;66064;50.226;14.344;2023-01-09T04:27:38;97927.00;;;3.32;89.78
77112;BME280;66064;50.226;14.344;2023-01-09T04:30:05;97919.09;;;3.32;90.16
77112;BME280;66064;50.226;14.344;2023-01-09T04:32:31;97919.03;;;3.28;91.01
77112;BME280;66064;50.226;14.344;2023-01-09T04:34:57;97915.59;;;3.32;90.23
77112;BME280;66064;50.226;14.344;2023-01-09T04:37:23;97904.09;;;3.25;91.00
77112;BME280;66064;50.226;14.344;2023-01-09T04:39:49;97912.94;;;3.30;90.63
77112;BME280;66064;50.226;14.344;2023-01-09T04:42:16;97921.78;;;3.35;90.27
77112;BME280;66064;50.226;14.344;2023-01-09T04:44:42;97921.72;;;3.32;90.67
77112;BME280;66064;50.226;14.344;2023-01-09T04:47:08;97907.63;;;3.24;90.42
77112;BME280;66064;50.226;14.344;2023-01-09T04:49:33;97919.09;;;3.31;90.95
77112;BME280;66064;50.226;14.344;2023-01-09T04:52:00;97890.97;;;3.24;90.41
77112;BME280;66064;50.226;14.344;2023-01-09T04:54:25;97887.47;;;3.25;90.66
77112;BME280;66064;50.226;14.344;2023-01-09T04:56:52;97911.25;;;3.35;90.59
77112;BME280;66064;50.226;14.344;2023-01-09T04:59:18;97902.56;;;3.39;91.05
77112;BME280;66064;50.226;14.344;2023-01-09T05:01:44;97881.41;;;3.32;90.54
77112;BME280;66064;50.226;14.344;2023-01-09T05:04:10;97892.00;;;3.36;91.06
77112;BME280;66064;50.226;14.344;2023-01-09T05:06:36;97905.13;;;3.36;91.43
77112;BME280;66064;50.226;14.344;2023-01-09T05:09:02;97901.59;;;3.33;91.00
77112;BME280;66064;50.226;14.344;2023-01-09T05:11:28;97894.50;;;3.27;91.22
77112;BME280;66064;50.226;14.344;2023-01-09T05:13:54;97913.00;;;3.35;90.29
77112;BME280;66064;50.226;14.344;2023-01-09T05:16:20;97920.97;;;3.41;90.36
77112;BME280;66064;50.226;14.344;2023-01-09T05:18:46;97920.09;;;3.43;90.46
77112;BME280;66064;50.226;14.344;2023-01-09T05:21:12;97920.97;;;3.41;90.82
77112;BME280;66064;50.226;14.344;2023-01-09T05:23:38;97891.03;;;3.31;90.02
77112;BME280;66064;50.226;14.344;2023-01-09T05:26:04;97918.28;;;3.36;90.49
77112;BME280;66064;50.226;14.344;2023-01-09T05:28:31;97916.56;;;3.38;90.05
77112;BME280;66064;50.226;14.344;2023-01-09T05:30:58;97907.69;;;3.32;90.65
77112;BME280;66064;50.226;14.344;2023-01-09T05:33:23;97929.78;;;3.46;89.80
77112;BME280;66064;50.226;14.344;2023-01-09T05:35:49;97896.38;;;3.36;90.43
77112;BME280;66064;50.226;14.344;2023-01-09T05:38:15;97913.06;;;3.42;90.96
77112;BME280;66064;50.226;14.344;2023-01-09T05:40:41;97913.97;;;3.44;90.15
77112;BME280;66064;50.226;14.344;2023-01-09T05:43:07;97921.84;;;3.43;90.99
77112;BME280;66064;50.226;14.344;2023-01-09T05:45:33;97912.13;;;3.36;90.48
77112;BME280;66064;50.226;14.344;2023-01-09T05:47:59;97913.06;;;3.39;90.98
77112;BME280;66064;50.226;14.344;2023-01-09T05:50:26;97906.91;;;3.37;91.22
77112;BME280;66064;50.226;14.344;2023-01-09T05:52:52;97906.00;;;3.35;91.26
77112;BME280;66064;50.226;14.344;2023-01-09T05:55:17;97884.97;;;3.35;91.02
77112;BME280;66064;50.226;14.344;2023-01-09T05:57:43;97898.13;;;3.35;91.51
77112;BME280;66064;50.226;14.344;2023-01-09T06:00:10;97892.88;;;3.37;90.70
77112;BME280;66064;50.226;14.344;2023-01-09T06:02:36;97890.19;;;3.32;90.93
77112;BME280;66064;50.226;14.344;2023-01-09T06:05:02;97899.06;;;3.43;91.49
77112;BME280;66064;50.226;14.344;2023-01-09T06:07:28;97897.28;;;3.39;91.50
77112;BME280;66064;50.226;14.344;2023-01-09T06:09:54;97873.56;;;3.35;91.28
77112;BME280;66064;50.226;14.344;2023-01-09T06:12:19;97885.91;;;3.40;90.86
77112;BME280;66064;50.226;14.344;2023-01-09T06:14:46;97885.91;;;3.43;90.96
77112;BME280;66064;50.226;14.344;2023-01-09T06:17:11;97887.66;;;3.40;90.84
77112;BME280;66064;50.226;14.344;2023-01-09T06:19:37;97889.41;;;3.42;90.88
77112;BME280;66064;50.226;14.344;2023-01-09T06:22:03;97881.47;;;3.36;91.44
77112;BME280;66064;50.226;14.344;2023-01-09T06:24:29;97882.34;;;3.35;91.38
77112;BME280;66064;50.226;14.344;2023-01-09T06:26:55;97892.00;;;3.36;91.58
77112;BME280;66064;50.226;14.344;2023-01-09T06:29:21;97875.22;;;3.28;91.58
77112;BME280;66064;50.226;14.344;2023-01-09T06:31:47;97873.44;;;3.24;91.71
77112;BME280;66064;50.226;14.344;2023-01-09T06:34:13;97889.28;;;3.30;92.00
77112;BME280;66064;50.226;14.344;2023-01-09T06:36:38;97901.50;;;3.28;91.81
77112;BME280;66064;50.226;14.344;2023-01-09T06:39:04;97900.69;;;3.32;91.82
77112;BME280;66064;50.226;14.344;2023-01-09T06:41:30;97895.41;;;3.29;91.91
77112;BME280;66064;50.226;14.344;2023-01-09T06:43:56;97907.81;;;3.39;91.70
77112;BME280;66064;50.226;14.344;2023-01-09T06:46:22;97910.44;;;3.42;91.47
77112;BME280;66064;50.226;14.344;2023-01-09T06:48:48;97881.44;;;3.33;92.01
77112;BME280;66064;50.226;14.344;2023-01-09T06:51:14;97896.44;;;3.43;91.25
77112;BME280;66064;50.226;14.344;2023-01-09T06:53:40;97909.63;;;3.46;91.62
77112;BME280;66064;50.226;14.344;2023-01-09T06:56:05;97907.81;;;3.39;91.48
77112;BME280;66064;50.226;14.344;2023-01-09T06:58:32;97914.88;;;3.46;91.73
77112;BME280;66064;50.226;14.344;2023-01-09T07:00:58;97907.84;;;3.45;90.97
77112;BME280;66064;50.226;14.344;2023-01-09T07:03:24;97908.81;;;3.52;91.31
77112;BME280;66064;50.226;14.344;2023-01-09T07:05:50;97911.53;;;3.57;91.20
77112;BME280;66064;50.226;14.344;2023-01-09T07:08:16;97906.03;;;3.38;91.31
77112;BME280;66064;50.226;14.344;2023-01-09T07:10:43;97917.44;;;3.42;90.75
77112;BME280;66064;50.226;14.344;2023-01-09T07:13:09;97921.97;;;3.52;91.29
77112;BME280;66064;50.226;14.344;2023-01-09T07:15:35;97928.09;;;3.51;90.57
77112;BME280;66064;50.226;14.344;2023-01-09T07:18:02;97938.72;;;3.57;90.60
77112;BME280;66064;50.226;14.344;2023-01-09T07:20:28;97923.59;;;3.42;90.45
77112;BME280;66064;50.226;14.344;2023-01-09T07:22:56;97943.94;;;3.56;90.68
77112;BME280;66064;50.226;14.344;2023-01-09T07:25:22;97938.63;;;3.53;91.08
77112;BME280;66064;50.226;14.344;2023-01-09T07:27:49;97942.13;;;3.51;91.19
77112;BME280;66064;50.226;14.344;2023-01-09T07:30:15;97936.06;;;3.56;91.33
77112;BME280;66064;50.226;14.344;2023-01-09T07:32:41;97946.59;;;3.57;91.31
77112;BME280;66064;50.226;14.344;2023-01-09T07:35:08;97949.25;;;3.62;91.58
77112;BME280;66064;50.226;14.344;2023-01-09T07:37:35;97951.84;;;3.59;91.86
77112;BME280;66064;50.226;14.344;2023-01-09T07:40:01;97950.97;;;3.58;90.88
77112;BME280;66064;50.226;14.344;2023-01-09T07:42:27;97959.91;;;3.71;90.57
77112;BME280;66064;50.226;14.344;2023-01-09T07:44:53;97961.75;;;3.81;89.82
77112;BME280;66064;50.226;14.344;2023-01-09T07:47:19;97973.13;;;3.78;90.73
77112;BME280;66064;50.226;14.344;2023-01-09T07:49:44;97976.78;;;3.91;90.36
77112;BME280;66064;50.226;14.344;2023-01-09T07:52:10;97976.81;;;3.94;90.58
77112;BME280;66064;50.226;14.344;2023-01-09T07:54:36;97975.97;;;3.97;91.02
77112;BME280;66064;50.226;14.344;2023-01-09T07:57:02;97978.53;;;3.89;90.69
77112;BME280;66064;50.226;14.344;2023-01-09T07:59:28;98000.63;;;4.03;90.75
77112;BME280;66064;50.226;14.344;2023-01-09T08:01:55;97987.41;;;4.00;90.66
77112;BME280;66064;50.226;14.344;2023-01-09T08:04:21;97994.53;;;4.10;90.29
77112;BME280;66064;50.226;14.344;2023-01-09T08:06:47;97998.00;;;4.08;90.77
77112;BME280;66064;50.226;14.344;2023-01-09T08:09:14;97993.63;;;4.08;90.64
77112;BME280;66064;50.226;14.344;2023-01-09T08:11:40;97984.00;;;4.10;90.39
77112;BME280;66064;50.226;14.344;2023-01-09T08:14:07;97972.69;;;4.17;90.27
77112;BME280;66064;50.226;14.344;2023-01-09T08:16:33;97991.13;;;4.17;90.30
77112;BME280;66064;50.226;14.344;2023-01-09T08:18:59;97986.06;;;4.37;89.47
77112;BME280;66064;50.226;14.344;2023-01-09T08:21:24;97987.81;;;4.40;89.41
77112;BME280;66064;50.226;14.344;2023-01-09T08:23:51;97993.06;;;4.37;89.21
77112;BME280;66064;50.226;14.344;2023-01-09T08:26:16;97991.31;;;4.39;89.61
77112;BME280;66064;50.226;14.344;2023-01-09T08:28:44;97985.06;;;4.29;90.08
77112;BME280;66064;50.226;14.344;2023-01-09T08:31:10;97993.91;;;4.33;89.37
77112;BME280;66064;50.226;14.344;2023-01-09T08:33:36;97979.91;;;4.41;89.45
77112;BME280;66064;50.226;14.344;2023-01-09T08:36:02;97986.16;;;4.51;89.86
77112;BME280;66064;50.226;14.344;2023-01-09T08:38:28;97992.34;;;4.54;89.54
77112;BME280;66064;50.226;14.344;2023-01-09T08:40:54;97987.13;;;4.61;89.59
77112;BME280;66064;50.226;14.344;2023-01-09T08:43:20;97978.25;;;4.49;88.94
77112;BME280;66064;50.226;14.344;2023-01-09T08:46:04;97973.88;;;4.50;89.32
77112;BME280;66064;50.226;14.344;2023-01-09T08:48:49;97969.50;;;4.55;88.31
77112;BME280;66064;50.226;14.344;2023-01-09T08:51:15;97988.03;;;4.64;88.12
77112;BME280;66064;50.226;14.344;2023-01-09T08:53:41;97978.44;;;4.71;88.04
77112;BME280;66064;50.226;14.344;2023-01-09T08:56:07;97995.13;;;4.74;88.67
77112;BME280;66064;50.226;14.344;2023-01-09T08:58:33;97997.00;;;4.84;88.73
77112;BME280;66064;50.226;14.344;2023-01-09T09:00:59;97997.91;;;4.91;87.99
77112;BME280;66064;50.226;14.344;2023-01-09T09:03:25;97996.13;;;4.90;87.95
77112;BME280;66064;50.226;14.344;2023-01-09T09:05:51;97983.84;;;4.92;87.00
77112;BME280;66064;50.226;14.344;2023-01-09T09:08:17;98015.59;;;5.03;86.72
77112;BME280;66064;50.226;14.344;2023-01-09T09:10:44;98020.91;;;5.12;85.83
77112;BME280;66064;50.226;14.344;2023-01-09T09:13:10;98023.47;;;5.00;86.27
77112;BME280;66064;50.226;14.344;2023-01-09T09:15:36;98019.19;;;5.17;86.03
77112;BME280;66064;50.226;14.344;2023-01-09T09:18:05;98024.47;;;5.15;85.37
77112;BME280;66064;50.226;14.344;2023-01-09T09:20:33;98020.94;;;5.16;85.24
77112;BME280;66064;50.226;14.344;2023-01-09T09:23:00;98032.31;;;5.11;85.93
77112;BME280;66064;50.226;14.344;2023-01-09T09:25:26;98042.03;;;5.13;86.45
77112;BME280;66064;50.226;14.344;2023-01-09T09:27:52;98044.63;;;5.10;87.01
77112;BME280;66064;50.226;14.344;2023-01-09T09:30:21;98029.66;;;5.06;87.46
77112;BME280;66064;50.226;14.344;2023-01-09T09:32:48;98018.22;;;5.06;87.81
77112;BME280;66064;50.226;14.344;2023-01-09T09:35:14;98033.31;;;5.26;88.22
77112;BME280;66064;50.226;14.344;2023-01-09T09:37:55;98022.72;;;5.19;88.65
77112;BME280;66064;50.226;14.344;2023-01-09T09:43:31;98044.97;;;5.60;87.68
77112;BME280;66064;50.226;14.344;2023-01-09T09:46:49;98052.94;;;5.74;86.74
77112;BME280;66064;50.226;14.344;2023-01-09T09:49:38;98059.91;;;5.61;86.83
77112;BME280;66064;50.226;14.344;2023-01-09T09:57:46;98081.94;;;5.63;86.91
77112;BME280;66064;50.226;14.344;2023-01-09T10:00:19;98076.63;;;5.60;86.45
77112;BME280;66064;50.226;14.344;2023-01-09T10:02:47;98071.31;;;5.51;86.44
77112;BME280;66064;50.226;14.344;2023-01-09T10:05:24;98067.72;;;5.43;86.60
77112;BME280;66064;50.226;14.344;2023-01-09T10:07:52;98082.72;;;5.53;86.45
77112;BME280;66064;50.226;14.344;2023-01-09T10:10:28;98074.81;;;5.53;86.36
77112;BME280;66064;50.226;14.344;2023-01-09T10:12:58;98080.91;;;5.45;86.25
77112;BME280;66064;50.226;14.344;2023-01-09T10:15:41;98098.47;;;5.41;86.66
77112;BME280;66064;50.226;14.344;2023-01-09T10:18:31;98085.31;;;5.44;86.63
77112;BME280;66064;50.226;14.344;2023-01-09T10:27:28;98083.50;;;5.37;87.37
77112;BME280;66064;50.226;14.344;2023-01-09T10:38:10;98047.56;;;5.51;86.06
77112;BME280;66064;50.226;14.344;2023-01-09T10:40:44;98048.47;;;5.59;85.70
77112;BME280;66064;50.226;14.344;2023-01-09T10:43:28;98047.59;;;5.62;85.31
77112;BME280;66064;50.226;14.344;2023-01-09T10:46:00;98046.72;;;5.60;85.06
77112;BME280;66064;50.226;14.344;2023-01-09T10:48:36;98064.44;;;5.84;85.09
77112;BME280;66064;50.226;14.344;2023-01-09T10:51:13;98051.31;;;5.91;83.54
77112;BME280;66064;50.226;14.344;2023-01-09T10:53:48;98061.00;;;5.94;83.25
77112;BME280;66064;50.226;14.344;2023-01-09T10:56:23;98069.81;;;5.96;83.30
77112;BME280;66064;50.226;14.344;2023-01-09T10:58:51;98048.66;;;5.93;82.10
77112;BME280;66064;50.226;14.344;2023-01-09T11:01:25;98061.91;;;5.97;82.02
77112;BME280;66064;50.226;14.344;2023-01-09T11:03:52;98062.78;;;5.98;82.37
77112;BME280;66064;50.226;14.344;2023-01-09T11:06:29;98055.63;;;5.79;83.43
77112;BME280;66064;50.226;14.344;2023-01-09T11:08:59;98052.97;;;5.85;83.54
77112;BME280;66064;50.226;14.344;2023-01-09T11:11:37;98054.81;;;5.90;82.99
77112;BME280;66064;50.226;14.344;2023-01-09T11:14:22;98053.94;;;5.93;83.06
77112;BME280;66064;50.226;14.344;2023-01-09T11:16:57;98035.53;;;6.10;82.46
77112;BME280;66064;50.226;14.344;2023-01-09T11:19:25;98041.72;;;6.16;82.76
77112;BME280;66064;50.226;14.344;2023-01-09T11:22:15;98038.22;;;6.26;82.93
77112;BME280;66064;50.226;14.344;2023-01-09T11:24:42;98025.06;;;6.40;82.58
77112;BME280;66064;50.226;14.344;2023-01-09T11:27:18;98034.78;;;6.58;82.56
77112;BME280;66064;50.226;14.344;2023-01-09T11:30:15;98036.56;;;6.71;81.53
77112;BME280;66064;50.226;14.344;2023-01-09T11:32:41;98040.97;;;6.78;81.89
77112;BME280;66064;50.226;14.344;2023-01-09T11:35:19;98044.50;;;6.86;82.14
77112;BME280;66064;50.226;14.344;2023-01-09T11:37:47;98033.06;;;6.93;81.14
77112;BME280;66064;50.226;14.344;2023-01-09T11:40:19;98033.06;;;7.12;80.91
77112;BME280;66064;50.226;14.344;2023-01-09T11:43:26;98051.56;;;7.30;81.05
77112;BME280;66064;50.226;14.344;2023-01-09T11:45:54;98033.03;;;7.27;79.41
77112;BME280;66064;50.226;14.344;2023-01-09T11:51:02;98063.88;;;7.46;79.90
77112;BME280;66064;50.226;14.344;2023-01-09T11:53:42;98059.47;;;7.45;78.33
77112;BME280;66064;50.226;14.344;2023-01-09T11:56:16;98056.84;;;7.47;78.47
77112;BME280;66064;50.226;14.344;2023-01-09T11:58:42;98050.63;;;7.52;79.47
77112;BME280;66064;50.226;14.344;2023-01-09T12:17:46;98039.94;;;7.95;75.82
77112;BME280;66064;50.226;14.344;2023-01-09T12:42:58;98095.59;;;7.72;75.35
77112;BME280;66064;50.226;14.344;2023-01-09T12:45:36;98077.06;;;7.64;74.94
77112;BME280;66064;50.226;14.344;2023-01-09T12:48:19;98101.78;;;7.71;74.35
77112;BME280;66064;50.226;14.344;2023-01-09T12:50:50;98101.78;;;7.66;75.17
77112;BME280;66064;50.226;14.344;2023-01-09T12:53:20;98115.03;;;7.66;75.12
77112;BME280;66064;50.226;14.344;2023-01-09T12:58:41;98116.81;;;7.63;74.88
77112;BME280;66064;50.226;14.344;2023-01-09T13:01:14;98105.34;;;7.50;73.63
77112;BME280;66064;50.226;14.344;2023-01-09T13:06:15;98096.50;;;7.56;74.05
77112;BME280;66064;50.226;14.344;2023-01-09T13:08:46;98111.53;;;7.61;72.87
77112;BME280;66064;50.226;14.344;2023-01-09T13:11:31;98096.50;;;7.54;73.33
77112;BME280;66064;50.226;14.344;2023-01-09T13:14:12;98117.69;;;7.57;73.76
77112;BME280;66064;50.226;14.344;2023-01-09T13:16:43;98121.22;;;7.59;74.25
77112;BME280;66064;50.226;14.344;2023-01-09T13:19:22;98120.31;;;7.66;74.43
77112;BME280;66064;50.226;14.344;2023-01-09T13:21:50;98120.34;;;7.62;74.54
77112;BME280;66064;50.226;14.344;2023-01-09T13:24:21;98130.94;;;7.59;75.00
77112;BME280;66064;50.226;14.344;2023-01-09T13:29:26;98119.44;;;7.51;73.82
77112;BME280;66064;50.226;14.344;2023-01-09T13:34:36;98108.88;;;7.34;74.72
77112;BME280;66064;50.226;14.344;2023-01-09T13:37:03;98123.00;;;7.24;74.35
77112;BME280;66064;50.226;14.344;2023-01-09T13:39:31;98136.22;;;7.25;74.49
77112;BME280;66064;50.226;14.344;2023-01-09T13:42:16;98142.38;;;7.32;73.21
77112;BME280;66064;50.226;14.344;2023-01-09T13:47:42;98143.25;;;7.19;73.71
77112;BME280;66064;50.226;14.344;2023-01-09T13:52:41;98138.84;;;7.15;73.75
77112;BME280;66064;50.226;14.344;2023-01-09T13:57:38;98175.94;;;7.28;72.79
77112;BME280;66064;50.226;14.344;2023-01-09T14:07:51;98165.28;;;7.06;75.14
77112;BME280;66064;50.226;14.344;2023-01-09T14:10:32;98188.25;;;7.13;75.91
77112;BME280;66064;50.226;14.344;2023-01-09T14:13:05;98186.44;;;7.02;76.45
77112;BME280;66064;50.226;14.344;2023-01-09T14:15:38;98169.69;;;6.96;76.27
77112;BME280;66064;50.226;14.344;2023-01-09T14:20:44;98195.25;;;6.98;77.45
77112;BME280;66064;50.226;14.344;2023-01-09T14:23:33;98194.38;;;6.96;76.81
77112;BME280;66064;50.226;14.344;2023-01-09T14:26:00;98201.41;;;6.93;77.07
77112;BME280;66064;50.226;14.344;2023-01-09T14:28:28;98203.16;;;6.86;77.00
77112;BME280;66064;50.226;14.344;2023-01-09T14:36:16;98209.31;;;6.85;76.85
77112;BME280;66064;50.226;14.344;2023-01-09T14:38:51;98206.63;;;6.70;76.67
77112;BME280;66064;50.226;14.344;2023-01-09T14:44:43;98223.34;;;6.69;77.00
77112;BME280;66064;50.226;14.344;2023-01-09T14:49:45;98228.63;;;6.61;76.74
77112;BME280;66064;50.226;14.344;2023-01-09T14:52:21;98239.19;;;6.60;77.13
77112;BME280;66064;50.226;14.344;2023-01-09T14:54:49;98240.00;;;6.45;77.03
77112;BME280;66064;50.226;14.344;2023-01-09T14:57:29;98240.91;;;6.49;76.86
77112;BME280;66064;50.226;14.344;2023-01-09T15:00:14;98239.13;;;6.45;77.00
77112;BME280;66064;50.226;14.344;2023-01-09T15:02:41;98235.53;;;6.37;76.78
77112;BME280;66064;50.226;14.344;2023-01-09T15:05:11;98226.72;;;6.38;76.87
77112;BME280;66064;50.226;14.344;2023-01-09T15:07:47;98235.59;;;6.46;76.69
77112;BME280;66064;50.226;14.344;2023-01-09T15:10:22;98240.00;;;6.44;77.04
77112;BME280;66064;50.226;14.344;2023-01-09T15:12:50;98224.06;;;6.28;77.47
77112;BME280;66064;50.226;14.344;2023-01-09T15:15:19;98231.09;;;6.34;76.97
77112;BME280;66064;50.226;14.344;2023-01-09T15:17:56;98209.97;;;6.29;77.42
77112;BME280;66064;50.226;14.344;2023-01-09T15:20:26;98230.22;;;6.35;77.08
77112;BME280;66064;50.226;14.344;2023-01-09T15:22:55;98231.06;;;6.25;77.68
77112;BME280;66064;50.226;14.344;2023-01-09T15:25:28;98233.75;;;6.29;77.06
77112;BME280;66064;50.226;14.344;2023-01-09T15:27:57;98243.44;;;6.32;77.51